Time;durP1;ratioP1;P1;durP2;ratioP2;P2;SDS_P1;SDS_P2;PMS_P1;PMS_P2;Temp;Humidity;BMP_temperature;BMP_pressure;BME280_temperature;BME280_humidity;BME280_pressure;Samples;Min_cycle;Max_cycle;Signal;HPM_P1;HPM_P2
2023/08/09 00:00:10;;;;;;;5.28;1.60;;;12.30;99.90;;;;;;4931633;29;20372;-59
2023/08/09 00:02:36;;;;;;;6.30;1.58;;;12.30;99.90;;;;;;4945560;29;20077;-61
2023/08/09 00:05:01;;;;;;;8.73;1.92;;;12.30;99.90;;;;;;4951353;29;20051;-57
2023/08/09 00:07:27;;;;;;;6.13;1.70;;;12.20;99.90;;;;;;4950633;29;20051;-58
2023/08/09 00:09:53;;;;;;;3.30;1.63;;;12.20;99.90;;;;;;4950784;29;20701;-59
2023/08/09 00:12:18;;;;;;;6.38;1.33;;;12.30;99.90;;;;;;4951047;29;20062;-59
2023/08/09 00:14:44;;;;;;;4.20;1.70;;;12.20;99.90;;;;;;4944920;29;20110;-59
2023/08/09 00:17:10;;;;;;;4.85;1.50;;;12.10;99.90;;;;;;4932820;29;20510;-57
2023/08/09 00:19:35;;;;;;;5.93;1.70;;;12.10;99.90;;;;;;4932214;29;20090;-62
2023/08/09 00:22:01;;;;;;;4.95;1.70;;;12.00;99.90;;;;;;4931402;29;20637;-59
2023/08/09 00:24:26;;;;;;;5.75;1.58;;;12.00;99.90;;;;;;4930539;29;20047;-59
2023/08/09 00:26:52;;;;;;;8.18;1.50;;;12.00;99.90;;;;;;4931455;29;20044;-59
2023/08/09 00:29:18;;;;;;;5.75;1.50;;;12.10;99.90;;;;;;4930149;29;20074;-60
2023/08/09 00:31:43;;;;;;;5.18;1.42;;;12.00;99.90;;;;;;4931713;29;20051;-59
2023/08/09 00:34:10;;;;;;;5.93;1.73;;;13.00;99.90;;;;;;4931213;29;20067;-56
2023/08/09 00:36:37;;;;;;;6.30;1.50;;;12.00;99.90;;;;;;4930466;29;20055;-58
2023/08/09 00:39:05;;;;;;;6.57;1.90;;;12.20;99.90;;;;;;4931622;29;20103;-58
2023/08/09 00:41:32;;;;;;;4.35;1.42;;;11.90;99.90;;;;;;4930851;29;20426;-54
2023/08/09 00:43:57;;;;;;;6.00;1.60;;;11.90;99.90;;;;;;4931351;29;20059;-60
2023/08/09 00:46:23;;;;;;;5.15;1.65;;;11.90;99.90;;;;;;4931526;29;20079;-59
2023/08/09 00:48:49;;;;;;;4.53;1.75;;;11.80;99.90;;;;;;4930497;29;20136;-56
2023/08/09 00:51:14;;;;;;;5.60;1.67;;;11.80;99.90;;;;;;4931173;29;20086;-59
2023/08/09 00:53:40;;;;;;;4.22;1.65;;;11.80;99.90;;;;;;4931242;29;20079;-56
2023/08/09 00:56:06;;;;;;;5.95;2.00;;;11.80;99.90;;;;;;4940356;29;20047;-60
2023/08/09 00:58:31;;;;;;;7.28;2.03;;;11.70;99.90;;;;;;4949792;28;20140;-58
2023/08/09 01:00:57;;;;;;;4.32;1.60;;;11.70;99.90;;;;;;4950423;29;20137;-57
2023/08/09 01:03:23;;;;;;;8.82;2.10;;;11.70;99.90;;;;;;4950637;29;20608;-59
2023/08/09 01:06:13;;;;;;;7.43;2.00;;;11.70;99.90;;;;;;4949509;29;20049;-59
2023/08/09 01:08:50;;;;;;;6.13;2.00;;;11.60;99.90;;;;;;4950970;29;20043;-56
2023/08/09 01:11:35;;;;;;;7.95;2.00;;;11.60;99.90;;;;;;4950004;29;20142;-59
2023/08/09 01:14:01;;;;;;;;;;;11.60;99.90;;;;;;4950604;29;20071;-57
2023/08/09 01:16:27;;;;;;;5.90;1.83;;;11.60;99.90;;;;;;4947060;29;20326;-54
2023/08/09 01:18:55;;;;;;;5.85;1.90;;;11.70;99.90;;;;;;4950488;29;20062;-58
2023/08/09 01:21:24;;;;;;;5.72;2.20;;;11.50;99.90;;;;;;4933059;29;20416;-59
2023/08/09 01:23:51;;;;;;;6.53;2.10;;;11.40;99.90;;;;;;4931193;29;20067;-60
2023/08/09 01:26:17;;;;;;;4.85;1.80;;;11.40;99.90;;;;;;4943159;29;20043;-56
2023/08/09 01:28:42;;;;;;;5.05;1.88;;;11.40;99.90;;;;;;4932075;29;20459;-58
2023/08/09 01:31:08;;;;;;;7.18;2.15;;;11.40;99.90;;;;;;4931243;29;20206;-60
2023/08/09 01:33:34;;;;;;;6.95;2.20;;;11.50;99.90;;;;;;4930512;29;20071;-58
2023/08/09 01:36:16;;;;;;;6.32;2.15;;;11.50;99.90;;;;;;4928561;29;20063;-60
2023/08/09 01:38:52;;;;;;;7.43;2.08;;;11.40;99.90;;;;;;4930785;29;20047;-63
2023/08/09 01:41:17;;;;;;;6.15;2.40;;;11.40;99.90;;;;;;4939918;29;20054;-53
2023/08/09 01:43:44;;;;;;;4.45;1.90;;;11.30;99.90;;;;;;4949999;29;20393;-59
2023/08/09 01:46:09;;;;;;;6.47;1.88;;;11.30;99.90;;;;;;4949631;29;20054;-53
2023/08/09 01:48:35;;;;;;;4.35;2.00;;;11.20;99.90;;;;;;4949164;29;20039;-59
2023/08/09 01:51:02;;;;;;;6.60;2.28;;;11.20;99.90;;;;;;4948897;29;20792;-56
2023/08/09 01:53:28;;;;;;;6.20;2.00;;;11.20;99.90;;;;;;4947953;29;20090;-57
2023/08/09 01:55:54;;;;;;;6.05;1.92;;;11.10;99.90;;;;;;4948757;28;20047;-59
2023/08/09 01:58:20;;;;;;;3.33;1.63;;;11.10;99.90;;;;;;4948731;28;20035;-60
2023/08/09 02:00:46;;;;;;;3.13;1.67;;;11.30;99.90;;;;;;4948995;29;20073;-60
2023/08/09 02:03:11;;;;;;;5.10;1.83;;;11.10;99.90;;;;;;4949643;29;20047;-58
2023/08/09 02:05:38;;;;;;;6.38;1.58;;;11.00;99.90;;;;;;4949056;29;20556;-59
2023/08/09 02:08:05;;;;;;;4.85;1.58;;;11.20;99.90;;;;;;4949200;29;20158;-59
2023/08/09 02:10:31;;;;;;;5.63;1.65;;;11.10;99.90;;;;;;4947479;29;20383;-55
2023/08/09 02:12:57;;;;;;;8.20;1.70;;;11.10;99.90;;;;;;4949083;29;20064;-58
2023/08/09 02:15:23;;;;;;;6.57;1.90;;;12.10;99.90;;;;;;4949019;29;20039;-56
2023/08/09 02:17:49;;;;;;;6.00;1.98;;;11.20;99.90;;;;;;4947903;29;20082;-60
2023/08/09 02:20:15;;;;;;;3.70;1.50;;;11.20;99.90;;;;;;4928392;29;20210;-60
2023/08/09 02:22:40;;;;;;;5.15;1.77;;;11.10;99.90;;;;;;4932135;29;20040;-60
2023/08/09 02:25:07;;;;;;;8.02;1.77;;;11.10;99.90;;;;;;4940187;29;20047;-58
2023/08/09 02:27:33;;;;;;;4.90;1.60;;;11.10;99.90;;;;;;4963234;28;20167;-57
2023/08/09 02:30:02;;;;;;;4.03;1.85;;;11.00;99.90;;;;;;4948940;29;20506;-59
2023/08/09 02:32:28;;;;;;;4.03;1.50;;;11.00;99.90;;;;;;4948848;29;20380;-61
2023/08/09 02:34:54;;;;;;;5.80;1.85;;;11.00;99.90;;;;;;4947839;29;20054;-54
2023/08/09 02:37:19;;;;;;;5.93;1.58;;;11.00;99.90;;;;;;4948019;29;20039;-56
2023/08/09 02:39:45;;;;;;;5.85;1.85;;;11.00;99.90;;;;;;4948973;29;20046;-57
2023/08/09 02:42:10;;;;;;;3.90;1.67;;;10.90;99.90;;;;;;4948918;29;20035;-60
2023/08/09 02:44:36;;;;;;;4.28;1.70;;;11.20;99.90;;;;;;4948077;29;20499;-60
2023/08/09 02:47:03;;;;;;;6.50;1.92;;;11.00;99.90;;;;;;4948275;29;20054;-56
2023/08/09 02:49:28;;;;;;;4.90;1.90;;;10.90;99.90;;;;;;4948694;29;20055;-58
2023/08/09 02:51:54;;;;;;;4.43;2.22;;;11.00;99.90;;;;;;4947424;29;20454;-58
2023/08/09 02:54:19;;;;;;;5.85;2.00;;;10.90;99.90;;;;;;4962981;28;20047;-59
2023/08/09 02:56:45;;;;;;;4.03;1.70;;;11.00;99.90;;;;;;4947922;28;20086;-58
2023/08/09 02:59:11;;;;;;;6.47;1.83;;;11.00;99.90;;;;;;4948764;29;20126;-57
2023/08/09 03:01:36;;;;;;;7.45;1.73;;;10.90;99.90;;;;;;4945987;29;20053;-60
2023/08/09 03:04:02;;;;;;;6.40;1.90;;;10.90;99.90;;;;;;4948507;29;20114;-60
2023/08/09 03:06:28;;;;;;;4.85;2.00;;;10.90;99.90;;;;;;4947812;29;20078;-60
2023/08/09 03:08:53;;;;;;;4.68;1.90;;;10.80;99.90;;;;;;4948056;29;20082;-59
2023/08/09 03:11:22;;;;;;;4.43;1.65;;;10.80;99.90;;;;;;4947629;28;20510;-60
2023/08/09 03:13:48;;;;;;;5.50;1.70;;;10.80;99.90;;;;;;4948463;29;20051;-60
2023/08/09 03:16:14;;;;;;;5.07;2.05;;;10.80;99.90;;;;;;4948764;29;20050;-56
2023/08/09 03:18:40;;;;;;;4.78;2.00;;;11.00;99.90;;;;;;4947989;29;20039;-58
2023/08/09 03:21:07;;;;;;;6.45;2.22;;;11.10;99.90;;;;;;4947779;29;20055;-58
2023/08/09 03:23:33;;;;;;;7.57;2.03;;;10.90;99.90;;;;;;4948398;29;20047;-60
2023/08/09 03:25:59;;;;;;;5.15;2.20;;;10.80;99.90;;;;;;4947907;29;20043;-59
2023/08/09 03:28:25;;;;;;;6.78;2.08;;;10.80;99.90;;;;;;4948352;29;20094;-60
2023/08/09 03:30:50;;;;;;;6.55;2.05;;;10.80;99.90;;;;;;4948287;29;20051;-58
2023/08/09 03:33:17;;;;;;;4.88;2.10;;;10.70;99.90;;;;;;4948226;28;20035;-58
2023/08/09 03:35:42;;;;;;;7.25;2.25;;;11.20;99.90;;;;;;4947703;29;20379;-60
2023/08/09 03:38:08;;;;;;;6.45;2.15;;;10.70;99.90;;;;;;4946695;29;20142;-61
2023/08/09 03:40:34;;;;;;;6.82;2.60;;;10.60;99.90;;;;;;4948097;29;20139;-57
2023/08/09 03:42:59;;;;;;;4.93;2.00;;;10.60;99.90;;;;;;4947626;29;20035;-59
2023/08/09 03:45:25;;;;;;;7.55;2.40;;;10.60;99.90;;;;;;4948182;29;20479;-58
2023/08/09 03:47:52;;;;;;;6.35;2.60;;;10.70;99.90;;;;;;4947810;29;20122;-59
2023/08/09 03:50:18;;;;;;;7.70;2.33;;;10.70;99.90;;;;;;4946838;29;20546;-54
2023/08/09 03:52:44;;;;;;;6.93;2.30;;;10.70;99.90;;;;;;4948425;29;20043;-60
2023/08/09 03:55:10;;;;;;;6.38;2.35;;;10.60;99.90;;;;;;4946238;28;20401;-60
2023/08/09 03:57:36;;;;;;;5.80;2.65;;;10.60;99.90;;;;;;4946888;29;20054;-58
2023/08/09 04:00:03;;;;;;;5.75;2.35;;;10.70;99.90;;;;;;4947803;29;20121;-60
2023/08/09 04:02:28;;;;;;;7.38;2.33;;;10.60;99.90;;;;;;4947892;29;20564;-60
2023/08/09 04:04:54;;;;;;;4.30;2.30;;;10.70;99.90;;;;;;4947320;29;20047;-59
2023/08/09 04:07:20;;;;;;;8.07;2.40;;;10.60;99.90;;;;;;4946986;29;20058;-58
2023/08/09 04:09:46;;;;;;;4.78;2.58;;;10.60;99.90;;;;;;4948346;29;20055;-60
2023/08/09 04:12:11;;;;;;;4.07;2.05;;;10.60;99.90;;;;;;4947795;29;20048;-60
2023/08/09 04:14:37;;;;;;;7.30;2.83;;;10.60;99.90;;;;;;4947431;29;20118;-59
2023/08/09 04:17:04;;;;;;;5.18;2.50;;;10.60;99.90;;;;;;4947374;29;20531;-59
2023/08/09 04:19:30;;;;;;;5.45;2.30;;;10.70;99.90;;;;;;4940437;29;20613;-60
2023/08/09 04:21:57;;;;;;;8.55;2.47;;;10.60;99.90;;;;;;4943221;28;20043;-61
2023/08/09 04:24:22;;;;;;;5.13;2.45;;;10.70;99.90;;;;;;4950649;29;20047;-58
2023/08/09 04:26:48;;;;;;;5.70;2.60;;;10.60;99.90;;;;;;4951195;29;20513;-59
2023/08/09 04:29:14;;;;;;;4.03;2.55;;;10.70;99.90;;;;;;4950732;29;20087;-60
2023/08/09 04:31:39;;;;;;;6.32;2.58;;;10.70;99.90;;;;;;4948945;29;20451;-59
2023/08/09 04:34:05;;;;;;;7.55;2.60;;;10.70;99.90;;;;;;4949073;29;20047;-59
2023/08/09 04:36:31;;;;;;;8.55;2.65;;;10.70;99.90;;;;;;4949958;29;20391;-58
2023/08/09 04:38:57;;;;;;;7.25;3.00;;;10.70;99.90;;;;;;4950503;29;20119;-60
2023/08/09 04:41:24;;;;;;;5.15;2.50;;;10.70;99.90;;;;;;4950683;29;20051;-59
2023/08/09 04:43:50;;;;;;;6.50;2.67;;;10.70;99.90;;;;;;4950896;29;20138;-59
2023/08/09 04:46:17;;;;;;;6.60;2.78;;;10.70;99.90;;;;;;4950670;29;20118;-55
2023/08/09 04:48:43;;;;;;;7.40;2.50;;;10.80;99.90;;;;;;4949832;29;20059;-60
2023/08/09 04:51:10;;;;;;;8.85;2.75;;;10.70;99.90;;;;;;4949758;29;20051;-60
2023/08/09 04:53:36;;;;;;;6.25;2.80;;;10.80;99.90;;;;;;4950072;29;20054;-60
2023/08/09 04:56:03;;;;;;;5.82;3.00;;;10.90;99.90;;;;;;4949017;28;20489;-60
2023/08/09 04:58:32;;;;;;;5.97;2.97;;;10.80;99.90;;;;;;4950091;29;20051;-60
2023/08/09 05:00:58;;;;;;;7.30;3.40;;;10.90;99.90;;;;;;4950612;29;20082;-57
2023/08/09 05:03:24;;;;;;;6.72;3.40;;;11.20;99.90;;;;;;4950231;29;20050;-57
2023/08/09 05:05:50;;;;;;;6.85;3.45;;;11.70;99.90;;;;;;4949752;29;20051;-60
2023/08/09 05:08:15;;;;;;;8.85;3.63;;;12.10;99.90;;;;;;4950573;29;20039;-60
2023/08/09 05:10:41;;;;;;;6.38;3.20;;;12.40;99.90;;;;;;4949780;29;20067;-54
2023/08/09 05:13:07;;;;;;;7.07;3.10;;;12.70;99.90;;;;;;4950287;29;20631;-56
2023/08/09 05:15:32;;;;;;;7.43;2.88;;;13.00;99.90;;;;;;4950437;29;20054;-60
2023/08/09 05:17:58;;;;;;;6.82;3.20;;;13.20;99.90;;;;;;4950135;29;20039;-60
2023/08/09 05:20:24;;;;;;;5.72;2.80;;;13.30;99.90;;;;;;4949493;29;20082;-59
2023/08/09 05:22:50;;;;;;;6.18;3.00;;;13.50;99.90;;;;;;4950501;29;20050;-58
2023/08/09 05:25:17;;;;;;;5.22;2.90;;;13.60;99.90;;;;;;4949588;29;20043;-59
2023/08/09 05:27:47;;;;;;;7.50;2.90;;;13.70;99.90;;;;;;4949758;29;20104;-60
2023/08/09 05:30:13;;;;;;;6.65;2.70;;;13.90;99.90;;;;;;4948712;29;20129;-61
2023/08/09 05:32:39;;;;;;;14.07;3.30;;;14.00;99.90;;;;;;4949708;29;20050;-60
2023/08/09 05:35:05;;;;;;;8.80;2.55;;;14.10;99.90;;;;;;4948367;29;20047;-57
2023/08/09 05:37:31;;;;;;;6.05;2.83;;;14.30;99.90;;;;;;4949861;28;20070;-54
2023/08/09 05:39:56;;;;;;;4.85;2.80;;;14.50;99.90;;;;;;4949867;29;20570;-60
2023/08/09 05:42:22;;;;;;;4.45;2.60;;;14.70;99.90;;;;;;4949844;29;20039;-59
2023/08/09 05:44:48;;;;;;;4.75;2.25;;;14.90;99.90;;;;;;4949263;29;20047;-60
2023/08/09 05:47:13;;;;;;;7.28;2.33;;;15.00;99.90;;;;;;4950029;28;20487;-58
2023/08/09 05:49:39;;;;;;;3.95;1.90;;;15.20;99.90;;;;;;4948840;29;20513;-59
2023/08/09 05:52:05;;;;;;;5.95;2.08;;;15.30;99.90;;;;;;4948956;28;20403;-57
2023/08/09 05:54:31;;;;;;;4.47;1.70;;;15.50;99.90;;;;;;4949356;29;20486;-60
2023/08/09 05:56:56;;;;;;;4.22;1.60;;;15.70;99.90;;;;;;4948930;28;20039;-57
2023/08/09 05:59:22;;;;;;;5.97;1.52;;;16.00;99.90;;;;;;4949985;29;20058;-60
2023/08/09 06:01:49;;;;;;;5.45;1.50;;;16.20;99.90;;;;;;4949079;29;20042;-57
2023/08/09 06:04:15;;;;;;;6.13;1.40;;;16.30;99.90;;;;;;4949497;29;20058;-59
2023/08/09 06:06:41;;;;;;;2.05;1.13;;;16.50;99.90;;;;;;4948035;28;20467;-60
2023/08/09 06:09:09;;;;;;;6.15;1.67;;;16.70;99.90;;;;;;4947207;29;20058;-57
2023/08/09 06:11:34;;;;;;;2.88;1.50;;;16.80;99.90;;;;;;4949325;29;20047;-60
2023/08/09 06:14:00;;;;;;;4.88;1.23;;;17.00;99.90;;;;;;4947550;29;20043;-58
2023/08/09 06:16:26;;;;;;;5.07;1.40;;;17.20;99.90;;;;;;4948758;29;20111;-57
2023/08/09 06:18:52;;;;;;;4.63;1.20;;;17.30;99.90;;;;;;4949753;29;20051;-59
2023/08/09 06:21:18;;;;;;;4.07;1.20;;;17.40;99.90;;;;;;4945198;29;20047;-59
2023/08/09 06:23:43;;;;;;;3.78;1.20;;;17.50;99.90;;;;;;4946059;29;20061;-59
2023/08/09 06:26:09;;;;;;;5.68;1.25;;;17.90;99.90;;;;;;4948617;29;20133;-58
2023/08/09 06:28:35;;;;;;;3.60;1.27;;;17.80;99.90;;;;;;4948921;29;20051;-57
2023/08/09 06:31:01;;;;;;;4.53;1.15;;;17.90;99.90;;;;;;4949212;28;20493;-57
2023/08/09 06:33:30;;;;;;;3.00;1.20;;;17.90;99.90;;;;;;4936661;29;20040;-56
2023/08/09 06:35:55;;;;;;;6.38;1.23;;;17.90;99.90;;;;;;4929276;29;20055;-55
2023/08/09 06:38:21;;;;;;;3.78;1.38;;;18.00;99.90;;;;;;4930144;29;20050;-56
2023/08/09 06:40:46;;;;;;;5.57;1.02;;;18.00;99.90;;;;;;4929556;29;20562;-56
2023/08/09 06:43:12;;;;;;;3.72;1.00;;;18.10;99.90;;;;;;4929374;29;20475;-57
2023/08/09 06:45:38;;;;;;;2.90;0.95;;;17.90;99.90;;;;;;4928709;29;20127;-59
2023/08/09 06:48:04;;;;;;;5.97;1.30;;;17.80;99.90;;;;;;4943066;29;20058;-56
2023/08/09 06:50:30;;;;;;;2.85;1.00;;;17.90;99.90;;;;;;4947788;28;20044;-57
2023/08/09 06:52:55;;;;;;;2.83;1.20;;;18.00;99.90;;;;;;4948704;29;20199;-58
2023/08/09 06:55:21;;;;;;;2.38;1.02;;;18.20;99.90;;;;;;4948303;28;20122;-60
2023/08/09 06:57:47;;;;;;;5.30;1.00;;;18.50;99.90;;;;;;4946522;29;20082;-60
2023/08/09 07:00:15;;;;;;;4.05;1.10;;;18.80;99.90;;;;;;4933594;29;20106;-57
2023/08/09 07:02:42;;;;;;;3.10;1.05;;;19.10;99.90;;;;;;4948497;28;20160;-56
2023/08/09 07:05:14;;;;;;;3.90;1.30;;;19.10;99.90;;;;;;4947226;29;20043;-58
2023/08/09 07:07:42;;;;;;;3.30;1.00;;;18.80;99.90;;;;;;4948233;28;20055;-59
2023/08/09 07:10:07;;;;;;;4.28;1.02;;;18.90;99.90;;;;;;4947974;29;20059;-60
2023/08/09 07:12:34;;;;;;;4.65;1.10;;;19.10;99.90;;;;;;4948251;29;20419;-59
2023/08/09 07:15:00;;;;;;;3.90;1.00;;;19.40;99.90;;;;;;4947734;29;20100;-60
2023/08/09 07:17:26;;;;;;;4.15;1.27;;;19.50;99.90;;;;;;4948605;29;20415;-54
2023/08/09 07:19:52;;;;;;;4.70;1.20;;;19.60;99.60;;;;;;4945455;29;20504;-60
2023/08/09 07:22:17;;;;;;;3.42;1.00;;;19.80;99.00;;;;;;4946632;29;20547;-58
2023/08/09 07:24:43;;;;;;;7.25;1.33;;;20.00;99.00;;;;;;4934916;29;20174;-60
2023/08/09 07:27:09;;;;;;;3.90;0.90;;;20.20;98.70;;;;;;4936220;29;20043;-61
2023/08/09 07:29:34;;;;;;;4.70;1.00;;;20.10;98.30;;;;;;4945374;29;20134;-61
2023/08/09 07:32:00;;;;;;;4.47;1.05;;;19.80;98.60;;;;;;4927745;29;20079;-59
2023/08/09 07:34:26;;;;;;;3.80;1.00;;;19.80;98.60;;;;;;4929670;29;20652;-62
2023/08/09 07:36:52;;;;;;;5.32;1.00;;;19.60;98.40;;;;;;4947819;29;20054;-59
2023/08/09 07:39:17;;;;;;;3.05;0.90;;;19.70;98.70;;;;;;4947584;29;20062;-61
2023/08/09 07:41:43;;;;;;;3.35;0.90;;;19.60;98.60;;;;;;4938063;29;20054;-59
2023/08/09 07:44:09;;;;;;;3.35;1.20;;;19.70;98.50;;;;;;4946902;29;20051;-61
2023/08/09 07:46:34;;;;;;;3.03;1.10;;;19.80;98.60;;;;;;4947645;29;20621;-61
2023/08/09 07:49:02;;;;;;;3.90;1.00;;;19.90;98.30;;;;;;4947939;29;20054;-60
2023/08/09 07:51:27;;;;;;;2.67;0.68;;;19.70;97.80;;;;;;4947506;29;20044;-61
2023/08/09 07:53:53;;;;;;;5.07;1.10;;;19.90;98.10;;;;;;4947921;29;20530;-60
2023/08/09 07:56:18;;;;;;;3.85;0.93;;;19.80;97.80;;;;;;4947436;28;20058;-62
2023/08/09 07:58:44;;;;;;;8.75;1.13;;;19.80;97.70;;;;;;4951554;29;20474;-61
2023/08/09 08:01:10;;;;;;;4.82;1.00;;;19.60;97.40;;;;;;4951686;29;20040;-58
2023/08/09 08:03:35;;;;;;;5.60;1.20;;;19.40;97.90;;;;;;4951195;29;20051;-60
2023/08/09 08:06:01;;;;;;;3.40;1.10;;;19.40;98.30;;;;;;4951022;29;20039;-66
2023/08/09 08:08:27;;;;;;;3.25;0.98;;;19.50;98.50;;;;;;4951983;29;20051;-66
2023/08/09 08:10:53;;;;;;;3.88;0.90;;;19.40;98.60;;;;;;4951207;29;20066;-67
2023/08/09 08:13:19;;;;;;;5.20;1.20;;;19.20;98.80;;;;;;4950988;29;20515;-66
2023/08/09 08:15:45;;;;;;;4.03;1.10;;;19.40;98.60;;;;;;4951054;29;20039;-67
2023/08/09 08:18:11;;;;;;;3.20;0.70;;;19.80;98.60;;;;;;4951303;29;20051;-66
2023/08/09 08:20:37;;;;;;;5.35;0.80;;;19.90;97.90;;;;;;4949430;28;20118;-64
2023/08/09 08:23:06;;;;;;;3.83;1.00;;;20.00;97.80;;;;;;4931827;29;20044;-65
2023/08/09 08:25:31;;;;;;;5.20;1.15;;;20.00;97.40;;;;;;4932664;29;20123;-61
2023/08/09 08:27:57;;;;;;;3.08;1.00;;;20.00;97.40;;;;;;4933047;29;20684;-65
2023/08/09 08:30:23;;;;;;;3.85;1.10;;;19.80;97.10;;;;;;4951098;29;20425;-66
2023/08/09 08:32:49;;;;;;;5.82;1.10;;;19.60;97.30;;;;;;4937584;29;20054;-64
2023/08/09 08:35:19;;;;;;;4.85;1.10;;;19.60;97.80;;;;;;4929530;29;20116;-64
2023/08/09 08:37:47;;;;;;;5.95;1.15;;;19.60;98.00;;;;;;4931835;29;20047;-65
2023/08/09 08:40:20;;;;;;;3.03;0.90;;;19.60;98.00;;;;;;4931816;29;20507;-65
2023/08/09 08:42:47;;;;;;;4.43;1.00;;;19.50;98.40;;;;;;4931423;29;20414;-64
2023/08/09 08:45:15;;;;;;;3.78;1.00;;;19.40;98.30;;;;;;4931453;29;20056;-64
2023/08/09 08:47:43;;;;;;;2.42;0.80;;;19.40;98.10;;;;;;4931422;29;20075;-62
2023/08/09 08:50:11;;;;;;;2.90;0.80;;;19.60;97.80;;;;;;4930371;29;20095;-61
2023/08/09 08:52:40;;;;;;;2.97;0.82;;;19.90;96.10;;;;;;4931910;29;20059;-62
2023/08/09 08:55:09;;;;;;;3.45;0.80;;;20.20;95.60;;;;;;4932374;28;20131;-61
2023/08/09 08:57:35;;;;;;;6.05;1.15;;;20.40;95.90;;;;;;4949447;29;20082;-58
2023/08/09 09:00:08;;;;;;;4.68;1.33;;;20.50;95.80;;;;;;4950721;29;20046;-66
2023/08/09 09:02:34;;;;;;;4.15;1.02;;;20.50;96.10;;;;;;4950640;28;20058;-61
2023/08/09 09:05:00;;;;;;;4.38;1.05;;;20.30;96.20;;;;;;4949934;29;20074;-65
2023/08/09 09:07:26;;;;;;;1.90;0.68;;;20.20;96.20;;;;;;4950224;28;20356;-62
2023/08/09 09:10:03;;;;;;;6.18;0.90;;;20.20;95.90;;;;;;4949206;29;20496;-64
2023/08/09 09:12:29;;;;;;;5.15;0.90;;;20.00;96.10;;;;;;4939442;29;20044;-63
2023/08/09 09:14:55;;;;;;;4.47;0.90;;;20.20;95.90;;;;;;4935181;29;20494;-64
2023/08/09 09:17:21;;;;;;;5.05;0.85;;;20.20;95.80;;;;;;4931044;29;20131;-65
2023/08/09 09:19:48;;;;;;;1.95;0.68;;;20.10;94.30;;;;;;4930327;29;20056;-65
2023/08/09 09:22:29;;;;;;;1.85;0.70;;;20.10;94.20;;;;;;4930146;29;20050;-63
2023/08/09 09:24:58;;;;;;;5.00;1.08;;;19.90;94.40;;;;;;4931037;29;20379;-65
2023/08/09 09:27:31;;;;;;;2.55;0.90;;;19.90;94.80;;;;;;4930377;29;20087;-65
2023/08/09 09:30:13;;;;;;;2.90;0.98;;;20.10;93.90;;;;;;4936281;29;20537;-65
2023/08/09 09:33:00;;;;;;;5.18;0.90;;;20.30;94.50;;;;;;4949554;28;20098;-65
2023/08/09 09:35:31;;;;;;;2.47;0.70;;;20.20;94.30;;;;;;4948428;28;20445;-62
2023/08/09 09:38:02;;;;;;;2.05;0.80;;;20.00;94.60;;;;;;4949763;29;20051;-64
2023/08/09 09:40:35;;;;;;;2.10;0.70;;;19.90;94.60;;;;;;4949723;28;20079;-64
2023/08/09 09:43:02;;;;;;;5.20;0.88;;;19.90;94.80;;;;;;4950189;29;20106;-65
2023/08/09 09:45:31;;;;;;;8.50;1.10;;;20.00;95.00;;;;;;4949768;29;20450;-63
2023/08/09 09:47:58;;;;;;;6.20;1.13;;;20.00;94.70;;;;;;4950104;29;20061;-64
2023/08/09 09:50:27;;;;;;;4.50;0.90;;;19.80;94.30;;;;;;4949083;29;20398;-65
2023/08/09 09:52:53;;;;;;;8.10;1.00;;;19.70;94.80;;;;;;4948767;29;20505;-63
2023/08/09 09:55:25;;;;;;;5.75;0.90;;;19.60;95.40;;;;;;4948794;28;20122;-65
2023/08/09 09:57:50;;;;;;;2.60;0.85;;;19.50;95.40;;;;;;4949348;29;20071;-65
2023/08/09 10:00:20;;;;;;;3.65;1.00;;;19.40;95.70;;;;;;4948903;29;20097;-64
2023/08/09 10:02:48;;;;;;;3.33;0.90;;;19.60;95.70;;;;;;4949586;29;20436;-65
2023/08/09 10:05:18;;;;;;;2.53;0.90;;;19.90;95.50;;;;;;4947352;29;20051;-65
2023/08/09 10:07:45;;;;;;;3.70;0.90;;;20.20;95.00;;;;;;4949080;29;20098;-65
2023/08/09 10:10:13;;;;;;;4.47;1.08;;;20.30;94.30;;;;;;4948017;29;20054;-64
2023/08/09 10:12:42;;;;;;;1.85;0.70;;;20.30;93.60;;;;;;4949523;29;20055;-63
2023/08/09 10:15:11;;;;;;;2.28;0.90;;;20.10;93.70;;;;;;4948648;29;20109;-65
2023/08/09 10:17:37;;;;;;;3.25;0.93;;;19.90;94.10;;;;;;4949563;28;20039;-62
2023/08/09 10:20:05;;;;;;;4.65;1.05;;;19.60;94.30;;;;;;4948860;28;20047;-62
2023/08/09 10:22:31;;;;;;;2.78;0.98;;;19.40;94.70;;;;;;4947682;29;20062;-62
2023/08/09 10:24:57;;;;;;;1.65;0.98;;;19.30;95.30;;;;;;4949404;29;20051;-66
2023/08/09 10:27:46;;;;;;;2.05;0.90;;;19.50;95.60;;;;;;4949024;29;20031;-64
2023/08/09 10:30:13;;;;;;;4.90;0.95;;;19.90;95.70;;;;;;4949136;29;20088;-61
2023/08/09 10:32:58;;;;;;;3.35;0.90;;;20.30;94.90;;;;;;4949347;28;20047;-63
2023/08/09 10:35:46;;;;;;;3.97;0.88;;;20.70;93.90;;;;;;4947973;29;20039;-65
2023/08/09 10:38:13;;;;;;;2.85;0.80;;;20.80;93.60;;;;;;4949360;29;20047;-63
2023/08/09 10:40:41;;;;;;;2.65;0.90;;;20.80;93.60;;;;;;4948547;29;20070;-61
2023/08/09 10:43:17;;;;;;;2.70;0.80;;;20.80;93.80;;;;;;4949308;29;20073;-63
2023/08/09 10:45:43;;;;;;;3.10;0.80;;;20.80;93.30;;;;;;4948500;29;20046;-63
2023/08/09 10:48:26;;;;;;;5.18;0.80;;;20.60;93.00;;;;;;4949020;29;20057;-59
2023/08/09 10:51:01;;;;;;;3.13;0.80;;;20.40;93.00;;;;;;4948111;29;20126;-65
2023/08/09 10:53:27;;;;;;;3.92;1.05;;;20.40;93.70;;;;;;4948706;29;20486;-66
2023/08/09 10:55:56;;;;;;;5.55;0.90;;;20.70;93.60;;;;;;4946691;28;20051;-65
2023/08/09 10:58:28;;;;;;;3.28;1.10;;;21.20;94.20;;;;;;4944947;29;20509;-60
2023/08/09 11:00:54;;;;;;;4.35;1.10;;;21.70;93.30;;;;;;4937945;29;20047;-65
2023/08/09 11:03:21;;;;;;;2.63;0.90;;;21.70;92.80;;;;;;4939061;29;20054;-64
2023/08/09 11:05:46;;;;;;;4.10;1.10;;;21.70;92.60;;;;;;4933779;29;20128;-66
2023/08/09 11:08:17;;;;;;;2.10;0.90;;;21.80;92.00;;;;;;4938211;29;20122;-63
2023/08/09 11:10:43;;;;;;;2.65;0.90;;;21.80;92.70;;;;;;4930501;29;20059;-65
2023/08/09 11:13:11;;;;;;;2.42;1.10;;;21.90;92.40;;;;;;4929870;29;20368;-64
2023/08/09 11:15:37;;;;;;;2.75;0.93;;;22.00;91.80;;;;;;4935780;29;20051;-65
2023/08/09 11:18:03;;;;;;;2.85;0.93;;;21.90;91.60;;;;;;4948225;29;20118;-67
2023/08/09 11:20:29;;;;;;;4.07;0.80;;;21.60;91.40;;;;;;4947645;29;20098;-65
2023/08/09 11:22:57;;;;;;;1.75;0.90;;;21.30;92.10;;;;;;4948024;29;20039;-65
2023/08/09 11:25:24;;;;;;;2.25;0.90;;;21.20;92.20;;;;;;4948222;29;20047;-64
2023/08/09 11:27:55;;;;;;;4.20;1.00;;;21.00;92.00;;;;;;4948294;29;20390;-64
2023/08/09 11:30:21;;;;;;;3.22;0.90;;;20.70;92.20;;;;;;4947505;29;20566;-62
2023/08/09 11:33:06;;;;;;;3.80;0.90;;;20.50;92.80;;;;;;4953464;28;20047;-63
2023/08/09 11:35:44;;;;;;;;;;;20.50;92.90;;;;;;4953748;28;20051;-60
2023/08/09 11:38:13;;;;;;;1.40;0.80;;;20.60;93.30;;;;;;4948861;28;20440;-62
2023/08/09 11:40:41;;;;;;;2.95;1.20;;;20.70;92.90;;;;;;4949590;28;20470;-60
2023/08/09 11:43:10;;;;;;;2.45;0.80;;;20.60;92.90;;;;;;4953627;28;20054;-62
2023/08/09 11:45:52;;;;;;;2.88;0.98;;;20.60;93.10;;;;;;4953853;28;20046;-63
2023/08/09 11:48:32;;;;;;;2.03;0.98;;;20.50;93.30;;;;;;4953617;28;20058;-64
2023/08/09 11:51:03;;;;;;;2.67;1.08;;;20.30;93.30;;;;;;4943360;28;20126;-64
2023/08/09 11:53:29;;;;;;;3.30;1.05;;;20.30;92.90;;;;;;4943201;29;20047;-63
2023/08/09 11:56:02;;;;;;;4.22;1.02;;;20.60;93.30;;;;;;4945863;28;20549;-62
2023/08/09 11:58:27;;;;;;;3.38;0.90;;;21.10;92.70;;;;;;4946323;29;20051;-65
2023/08/09 12:00:53;;;;;;;8.35;1.10;;;21.20;92.30;;;;;;4954237;28;20043;-63
2023/08/09 12:03:20;;;;;;;2.70;1.00;;;21.00;92.30;;;;;;4954031;28;20098;-66
2023/08/09 12:05:46;;;;;;;4.32;1.08;;;21.10;92.70;;;;;;4953387;29;20270;-65
2023/08/09 12:08:12;;;;;;;2.25;0.90;;;21.30;93.00;;;;;;4953042;29;20431;-65
2023/08/09 12:10:41;;;;;;;1.50;0.88;;;21.60;92.60;;;;;;4950647;28;20063;-63
2023/08/09 12:13:06;;;;;;;6.20;1.05;;;21.70;92.60;;;;;;4953405;29;20079;-62
2023/08/09 12:15:34;;;;;;;2.67;1.00;;;21.60;92.70;;;;;;4954000;29;20534;-62
2023/08/09 12:17:59;;;;;;;4.10;1.17;;;21.40;92.00;;;;;;4954318;29;20054;-63
2023/08/09 12:20:25;;;;;;;2.50;0.90;;;21.20;92.30;;;;;;4951340;28;20039;-65
2023/08/09 12:22:51;;;;;;;2.45;0.98;;;20.80;92.70;;;;;;4953807;28;20513;-61
2023/08/09 12:25:17;;;;;;;3.08;1.00;;;20.60;93.10;;;;;;4954071;29;20110;-66
2023/08/09 12:27:43;;;;;;;3.40;0.82;;;20.50;92.90;;;;;;4953922;29;20051;-65
2023/08/09 12:30:12;;;;;;;4.97;0.90;;;20.50;93.00;;;;;;4954078;28;20058;-64
2023/08/09 12:32:38;;;;;;;3.97;1.10;;;20.40;93.20;;;;;;4954079;29;20378;-66
2023/08/09 12:35:05;;;;;;;4.40;1.05;;;20.40;93.60;;;;;;4952793;29;20047;-62
2023/08/09 12:37:30;;;;;;;4.78;1.10;;;20.40;93.60;;;;;;4954022;28;20090;-64
2023/08/09 12:39:56;;;;;;;2.60;1.20;;;20.30;93.70;;;;;;4954123;28;20527;-65
2023/08/09 12:42:22;;;;;;;2.15;1.20;;;20.30;94.10;;;;;;4953155;28;20078;-62
2023/08/09 12:44:47;;;;;;;6.32;1.00;;;20.40;94.20;;;;;;4950506;29;20051;-66
2023/08/09 12:47:13;;;;;;;2.92;1.10;;;20.50;94.20;;;;;;4951102;29;20040;-62